WZZ24K ESMS-EPGD
Flight info
| Callsign | WZZ24K |
|---|---|
| Flight time | N/A |
| Altitude | 27000 |
| Route | TELMO L983 DOMAG T240 OGDAV |
| Aircraft | A20N/M-SDE2E3FGHIRWXY/LB1 |
Departure
| Time | 2026-05-08 17:37 |
|---|---|
| Airport | Malmö Sturup Airport (ESMS) |
Arrival
| Time | N/A |
|---|---|
| Airport | Gdańsk Lech Wałęsa Airport (EPGD) |
| Time | Latitude | Longitude | Altitude | Speed | Heading |
|---|---|---|---|---|---|
| 2026-05-08 17:15 | 55.54238 | 13.36838 | 224 ft | 0 kts | 354° |
| 2026-05-08 17:30 | 55.54222 | 13.36841 | 224 ft | 3 kts | 353° |
| 2026-05-08 17:31 | 55.54200 | 13.36845 | 226 ft | 3 kts | 357° |
| 2026-05-08 17:31 | 55.54178 | 13.36843 | 225 ft | 3 kts | 21° |
| 2026-05-08 17:31 | 55.54163 | 13.36823 | 226 ft | 0 kts | 73° |
| 2026-05-08 17:34 | 55.54164 | 13.36825 | 227 ft | 1 kts | 73° |
| 2026-05-08 17:34 | 55.54174 | 13.36919 | 224 ft | 17 kts | 82° |
| 2026-05-08 17:34 | 55.54204 | 13.37158 | 224 ft | 22 kts | 75° |
| 2026-05-08 17:34 | 55.54209 | 13.37230 | 224 ft | 0 kts | 85° |
| 2026-05-08 17:36 | 55.54211 | 13.37262 | 226 ft | 8 kts | 83° |
| 2026-05-08 17:36 | 55.54223 | 13.37427 | 225 ft | 16 kts | 84° |
| 2026-05-08 17:36 | 55.54185 | 13.37506 | 225 ft | 5 kts | 171° |
| 2026-05-08 17:37 | 55.54108 | 13.37525 | 227 ft | 41 kts | 173° |
| 2026-05-08 17:37 | 55.53504 | 13.37648 | 232 ft | 128 kts | 175° |
| 2026-05-08 17:37 | 55.52487 | 13.37805 | 724 ft | 153 kts | 170° |
| 2026-05-08 17:37 | 55.51408 | 13.38020 | 1676 ft | 159 kts | 167° |
| 2026-05-08 17:38 | 55.50293 | 13.38263 | 2549 ft | 167 kts | 166° |
| 2026-05-08 17:38 | 55.49073 | 13.38545 | 3164 ft | 187 kts | 167° |
| 2026-05-08 17:38 | 55.47698 | 13.38823 | 3815 ft | 209 kts | 170° |
| 2026-05-08 17:38 | 55.46190 | 13.39036 | 4468 ft | 231 kts | 172° |
| 2026-05-08 17:39 | 55.44508 | 13.39239 | 5158 ft | 252 kts | 173° |
| 2026-05-08 17:39 | 55.42703 | 13.39454 | 5987 ft | 264 kts | 173° |
| 2026-05-08 17:39 | 55.40875 | 13.39681 | 7014 ft | 268 kts | 173° |
| 2026-05-08 17:39 | 55.38988 | 13.39921 | 8012 ft | 272 kts | 173° |
| 2026-05-08 17:40 | 55.37078 | 13.40170 | 9044 ft | 277 kts | 173° |
| 2026-05-08 17:40 | 55.35129 | 13.40427 | 10069 ft | 282 kts | 173° |
| 2026-05-08 17:40 | 55.33229 | 13.41185 | 10834 ft | 290 kts | 153° |
| 2026-05-08 17:40 | 55.31552 | 13.43337 | 11202 ft | 310 kts | 129° |
| 2026-05-08 17:41 | 55.30255 | 13.46453 | 11646 ft | 327 kts | 121° |
| 2026-05-08 17:41 | 55.29042 | 13.49892 | 12488 ft | 333 kts | 120° |
| 2026-05-08 17:41 | 55.27873 | 13.53447 | 13345 ft | 338 kts | 111° |
| 2026-05-08 17:41 | 55.27265 | 13.57443 | 14179 ft | 341 kts | 98° |
| 2026-05-08 17:42 | 55.26968 | 13.61555 | 14933 ft | 346 kts | 95° |
| 2026-05-08 17:42 | 55.26712 | 13.65813 | 15624 ft | 353 kts | 95° |
| 2026-05-08 17:42 | 55.26425 | 13.70088 | 16356 ft | 359 kts | 97° |
| 2026-05-08 17:42 | 55.26087 | 13.74479 | 17065 ft | 365 kts | 98° |
| 2026-05-08 17:43 | 55.25715 | 13.78920 | 17776 ft | 370 kts | 98° |
| 2026-05-08 17:43 | 55.25322 | 13.83430 | 18488 ft | 376 kts | 99° |
| 2026-05-08 17:43 | 55.24920 | 13.87947 | 19118 ft | 381 kts | 99° |
| 2026-05-08 17:43 | 55.24505 | 13.92582 | 19763 ft | 385 kts | 99° |
| 2026-05-08 17:44 | 55.24088 | 13.97220 | 20387 ft | 390 kts | 99° |
| 2026-05-08 17:44 | 55.23661 | 14.01961 | 21007 ft | 394 kts | 99° |
| 2026-05-08 17:44 | 55.23228 | 14.06754 | 21636 ft | 399 kts | 99° |
| 2026-05-08 17:44 | 55.22796 | 14.11519 | 22210 ft | 404 kts | 99° |
| 2026-05-08 17:45 | 55.22348 | 14.16434 | 22819 ft | 408 kts | 99° |
| 2026-05-08 17:45 | 55.21900 | 14.21334 | 23415 ft | 413 kts | 99° |
| 2026-05-08 17:45 | 55.21438 | 14.26357 | 23989 ft | 417 kts | 99° |
| 2026-05-08 17:45 | 55.20976 | 14.31361 | 24505 ft | 420 kts | 99° |
| 2026-05-08 17:46 | 55.20503 | 14.36457 | 25017 ft | 423 kts | 99° |
| 2026-05-08 17:46 | 55.20029 | 14.41541 | 25512 ft | 427 kts | 99° |
| 2026-05-08 17:46 | 55.19546 | 14.46696 | 26023 ft | 430 kts | 99° |
| 2026-05-08 17:46 | 55.19060 | 14.51837 | 26487 ft | 433 kts | 99° |
| 2026-05-08 17:47 | 55.18562 | 14.57079 | 26956 ft | 436 kts | 99° |
| 2026-05-08 17:47 | 55.18064 | 14.62303 | 27203 ft | 439 kts | 99° |
| 2026-05-08 17:47 | 55.17558 | 14.67590 | 27241 ft | 440 kts | 99° |
| 2026-05-08 17:47 | 55.17218 | 14.71127 | 27240 ft | 439 kts | 99° |
| 2026-05-08 17:48 | 55.16546 | 14.78109 | 27239 ft | 439 kts | 100° |
| 2026-05-08 17:48 | 55.16034 | 14.83397 | 27241 ft | 440 kts | 100° |
| 2026-05-08 17:48 | 55.15526 | 14.88619 | 27241 ft | 440 kts | 100° |
| 2026-05-08 17:48 | 55.15007 | 14.93927 | 27244 ft | 440 kts | 100° |
| 2026-05-08 17:49 | 55.14488 | 14.99214 | 27244 ft | 438 kts | 100° |
| 2026-05-08 17:49 | 55.13975 | 15.04408 | 27247 ft | 438 kts | 100° |
| 2026-05-08 17:49 | 55.13455 | 15.09653 | 27248 ft | 439 kts | 100° |
| 2026-05-08 17:49 | 55.12927 | 15.14961 | 27250 ft | 440 kts | 100° |
| 2026-05-08 17:50 | 55.12405 | 15.20178 | 27251 ft | 439 kts | 100° |
| 2026-05-08 17:50 | 55.11876 | 15.25442 | 27257 ft | 438 kts | 100° |
| 2026-05-08 17:50 | 55.11345 | 15.30699 | 27260 ft | 440 kts | 100° |
| 2026-05-08 17:50 | 55.10815 | 15.35925 | 27262 ft | 438 kts | 100° |
| 2026-05-08 17:51 | 55.10282 | 15.41165 | 27263 ft | 438 kts | 100° |
| 2026-05-08 17:51 | 55.09744 | 15.46423 | 27260 ft | 438 kts | 100° |
| 2026-05-08 17:51 | 55.09209 | 15.51622 | 27259 ft | 438 kts | 100° |
| 2026-05-08 17:51 | 55.08666 | 15.56886 | 27257 ft | 438 kts | 100° |
| 2026-05-08 17:52 | 55.08121 | 15.62138 | 27259 ft | 438 kts | 100° |
| 2026-05-08 17:52 | 55.07582 | 15.67312 | 27248 ft | 437 kts | 100° |
| 2026-05-08 17:52 | 55.06491 | 15.77722 | 26544 ft | 431 kts | 100° |
| 2026-05-08 17:53 | 55.05954 | 15.82815 | 25960 ft | 428 kts | 101° |
| 2026-05-08 17:53 | 55.05414 | 15.87917 | 25399 ft | 424 kts | 101° |
| 2026-05-08 17:53 | 55.04878 | 15.92947 | 24975 ft | 416 kts | 101° |
| 2026-05-08 17:53 | 55.04358 | 15.97823 | 24637 ft | 413 kts | 101° |
| 2026-05-08 17:54 | 55.03824 | 16.02804 | 24278 ft | 417 kts | 101° |
| 2026-05-08 17:54 | 55.03343 | 16.07742 | 23912 ft | 418 kts | 96° |
| 2026-05-08 17:54 | 55.03246 | 16.12785 | 23520 ft | 414 kts | 89° |
| 2026-05-08 17:54 | 55.03341 | 16.17792 | 23102 ft | 410 kts | 87° |
| 2026-05-08 17:55 | 55.03430 | 16.21083 | 22825 ft | 407 kts | 87° |
| 2026-05-08 17:55 | 55.03619 | 16.27582 | 22288 ft | 402 kts | 87° |
| 2026-05-08 17:55 | 55.03716 | 16.30831 | 22020 ft | 400 kts | 86° |
| 2026-05-08 17:55 | 55.03860 | 16.35672 | 21618 ft | 398 kts | 86° |
| 2026-05-08 17:56 | 55.04004 | 16.40497 | 21230 ft | 395 kts | 86° |
| 2026-05-08 17:56 | 55.04147 | 16.45282 | 20845 ft | 392 kts | 86° |
| 2026-05-08 17:56 | 55.04288 | 16.49984 | 20460 ft | 389 kts | 86° |
| 2026-05-08 17:56 | 55.04247 | 16.54651 | 20083 ft | 387 kts | 97° |
| 2026-05-08 17:57 | 55.03583 | 16.59183 | 19687 ft | 383 kts | 109° |
| 2026-05-08 17:57 | 55.02679 | 16.63552 | 19172 ft | 379 kts | 110° |
| 2026-05-08 17:57 | 55.01762 | 16.67809 | 18660 ft | 376 kts | 111° |
| 2026-05-08 17:57 | 55.00826 | 16.72057 | 18083 ft | 372 kts | 111° |
| 2026-05-08 17:58 | 54.99894 | 16.76233 | 17527 ft | 367 kts | 111° |
| 2026-05-08 17:58 | 54.98973 | 16.80341 | 16973 ft | 364 kts | 111° |
| 2026-05-08 17:58 | 54.98061 | 16.84393 | 16434 ft | 360 kts | 111° |
| 2026-05-08 17:58 | 54.97155 | 16.88415 | 15900 ft | 356 kts | 111° |
| 2026-05-08 17:59 | 54.96251 | 16.92423 | 15385 ft | 352 kts | 111° |
| 2026-05-08 17:59 | 54.95352 | 16.96401 | 14877 ft | 348 kts | 111° |
| 2026-05-08 17:59 | 54.94477 | 17.00267 | 14379 ft | 345 kts | 111° |
| 2026-05-08 17:59 | 54.93597 | 17.04143 | 13878 ft | 341 kts | 111° |
| 2026-05-08 18:00 | 54.92733 | 17.07945 | 13344 ft | 338 kts | 111° |
| 2026-05-08 18:00 | 54.91023 | 17.15449 | 12249 ft | 332 kts | 110° |
| 2026-05-08 18:00 | 54.90171 | 17.19181 | 11736 ft | 328 kts | 110° |
| 2026-05-08 18:01 | 54.89337 | 17.22825 | 11226 ft | 326 kts | 110° |
| 2026-05-08 18:01 | 54.88497 | 17.26491 | 10722 ft | 323 kts | 110° |
| 2026-05-08 18:01 | 54.87685 | 17.30031 | 10484 ft | 312 kts | 110° |
| 2026-05-08 18:01 | 54.86896 | 17.33460 | 10363 ft | 298 kts | 110° |
| 2026-05-08 18:02 | 54.86151 | 17.36694 | 10257 ft | 284 kts | 110° |
| 2026-05-08 18:02 | 54.85430 | 17.39817 | 10224 ft | 271 kts | 110° |
| 2026-05-08 18:02 | 54.84719 | 17.42905 | 10227 ft | 277 kts | 110° |
| 2026-05-08 18:02 | 54.84012 | 17.45963 | 10230 ft | 274 kts | 110° |
| 2026-05-08 18:03 | 54.83299 | 17.49048 | 10224 ft | 274 kts | 110° |
| 2026-05-08 18:03 | 54.82594 | 17.52088 | 10224 ft | 274 kts | 110° |
| 2026-05-08 18:03 | 54.82352 | 17.53132 | 10223 ft | 274 kts | 110° |
| 2026-05-08 18:05 | 54.76824 | 17.76806 | 10225 ft | 272 kts | 111° |
| 2026-05-08 18:05 | 54.76005 | 17.80294 | 10221 ft | 272 kts | 111° |